Time;durP1;ratioP1;P1;durP2;ratioP2;P2;SDS_P1;SDS_P2;PMS_P1;PMS_P2;Temp;Humidity;BMP_temperature;BMP_pressure;BME280_temperature;BME280_humidity;BME280_pressure;Samples;Min_cycle;Max_cycle;Signal;HPM_P1;HPM_P2
2022/07/03 00:01:59;;;;;;;2.70;0.85;;;;;;;18.36;52.47;101377.03;5082217;28;20059;-67
2022/07/03 00:04:27;;;;;;;6.65;1.15;;;;;;;18.28;52.68;101360.41;5078525;28;20056;-66
2022/07/03 00:06:54;;;;;;;6.70;1.10;;;;;;;18.40;52.44;101366.00;5059503;28;20060;-66
2022/07/03 00:09:22;;;;;;;3.72;1.25;;;;;;;18.25;52.48;101364.75;5065776;28;20765;-66
2022/07/03 00:11:50;;;;;;;7.47;1.10;;;;;;;18.34;52.55;101367.41;5080281;28;20059;-66
2022/07/03 00:14:17;;;;;;;3.83;0.93;;;;;;;18.24;52.32;101376.22;5074443;28;20499;-66
2022/07/03 00:16:45;;;;;;;5.25;1.05;;;;;;;18.16;52.76;101364.03;5089244;28;20048;-66
2022/07/03 00:19:12;;;;;;;5.00;1.27;;;;;;;18.38;52.19;101362.72;5076197;28;20063;-67
2022/07/03 00:21:58;;;;;;;3.83;1.25;;;;;;;18.43;52.16;101359.75;5077266;28;20048;-66
2022/07/03 00:24:30;;;;;;;5.95;1.10;;;;;;;18.28;52.34;101358.44;5069677;28;20040;-67
2022/07/03 00:26:59;;;;;;;2.28;1.05;;;;;;;18.27;52.30;101358.81;5055272;28;20045;-66
2022/07/03 00:29:30;;;;;;;5.53;1.17;;;;;;;18.18;52.54;101370.09;5079940;28;20432;-66
2022/07/03 00:31:58;;;;;;;2.95;1.02;;;;;;;18.09;53.12;101360.19;5076958;28;20052;-67
2022/07/03 00:34:26;;;;;;;2.47;1.30;;;;;;;18.33;52.25;101351.81;5058980;28;20066;-66
2022/07/03 00:36:55;;;;;;;6.07;1.23;;;;;;;18.69;51.16;101351.81;5076506;28;20048;-66
2022/07/03 00:39:22;;;;;;;5.05;1.23;;;;;;;18.36;52.07;101354.72;5042883;28;20055;-66
2022/07/03 00:42:00;;;;;;;4.32;1.23;;;;;;;18.19;52.72;101343.81;5062031;28;20629;-66
2022/07/03 00:44:31;;;;;;;2.33;1.00;;;;;;;18.13;53.04;101355.56;5072571;28;20507;-66
2022/07/03 00:46:58;;;;;;;5.57;1.33;;;;;;;18.35;52.46;101361.47;5083947;28;20420;-67
2022/07/03 00:49:27;;;;;;;4.00;1.00;;;;;;;18.33;52.60;101361.00;5083441;28;20504;-68
2022/07/03 00:51:56;;;;;;;7.57;1.20;;;;;;;18.50;52.82;101365.53;5060914;28;20059;-67
2022/07/03 00:54:24;;;;;;;4.67;1.17;;;;;;;18.56;52.66;101367.75;5074400;28;20488;-65
2022/07/03 00:56:54;;;;;;;3.67;1.30;;;;;;;18.61;52.94;101364.72;5050440;28;20052;-67
2022/07/03 00:59:21;;;;;;;5.55;1.38;;;;;;;18.64;52.78;101363.19;5075236;28;20067;-66
2022/07/03 01:01:54;;;;;;;4.28;1.40;;;;;;;18.42;53.78;101363.69;5078998;28;20351;-66
2022/07/03 01:04:26;;;;;;;4.47;1.52;;;;;;;18.26;54.42;101357.16;5065809;28;20513;-67
2022/07/03 01:07:06;;;;;;;3.40;1.23;;;;;;;18.57;53.52;101358.22;5065793;28;20068;-67
2022/07/03 01:10:01;;;;;;;3.80;1.30;;;;;;;18.43;53.93;101365.34;5066872;28;20056;-66
2022/07/03 01:12:41;;;;;;;4.60;1.38;;;;;;;18.29;54.68;101359.28;5067576;28;20045;-66
2022/07/03 01:15:24;;;;;;;2.85;1.20;;;;;;;18.02;55.28;101368.31;5058085;28;20060;-66
2022/07/03 01:18:02;;;;;;;5.13;1.10;;;;;;;17.99;55.38;101365.06;5075068;28;20052;-66
2022/07/03 01:20:30;;;;;;;4.60;1.30;;;;;;;17.87;56.02;101372.59;5084209;28;20060;-66
2022/07/03 01:22:59;;;;;;;5.93;1.10;;;;;;;17.84;55.89;101370.50;5086212;28;20068;-66
2022/07/03 01:25:45;;;;;;;5.18;1.30;;;;;;;17.85;56.01;101372.94;5065439;28;20044;-66
2022/07/03 01:28:13;;;;;;;5.30;1.30;;;;;;;17.93;55.81;101372.03;5062098;28;20056;-66
2022/07/03 01:30:44;;;;;;;6.30;1.55;;;;;;;17.73;56.09;101370.13;5071432;28;20040;-66
2022/07/03 01:33:16;;;;;;;4.03;1.30;;;;;;;17.41;57.24;101370.16;5073446;28;20503;-66
2022/07/03 01:36:06;;;;;;;5.13;1.30;;;;;;;17.38;57.71;101374.41;5087126;28;20052;-67
2022/07/03 01:38:37;;;;;;;;;;;;;;;17.56;56.96;101367.56;5074470;28;20059;-67
2022/07/03 01:41:08;;;;;;;7.80;1.60;;;;;;;17.55;57.20;101373.47;5071179;28;19921;-66
2022/07/03 01:43:47;;;;;;;5.28;1.45;;;;;;;17.51;57.30;101378.09;5091664;28;20056;-66
2022/07/03 01:46:16;;;;;;;5.13;1.33;;;;;;;17.47;57.42;101377.19;5064215;28;20053;-66
2022/07/03 01:48:45;;;;;;;8.50;1.80;;;;;;;17.46;57.45;101370.78;5080113;28;20095;-66
2022/07/03 01:51:16;;;;;;;5.65;1.40;;;;;;;17.70;57.00;101370.84;5084745;28;20078;-66
2022/07/03 01:53:46;;;;;;;3.50;1.60;;;;;;;17.71;56.71;101366.09;5080751;28;20075;-66
2022/07/03 01:56:15;;;;;;;3.15;1.30;;;;;;;17.33;57.98;101365.50;5066228;28;20044;-66
2022/07/03 01:58:42;;;;;;;6.25;1.58;;;;;;;17.61;57.29;101360.94;5076383;28;20057;-66
2022/07/03 02:01:19;;;;;;;11.05;1.65;;;;;;;17.72;56.91;101371.31;5083152;28;20074;-67
2022/07/03 02:03:51;;;;;;;4.22;1.58;;;;;;;17.74;56.80;101370.97;5087195;28;20056;-66
2022/07/03 02:06:27;;;;;;;3.92;1.65;;;;;;;17.89;56.30;101361.91;5047795;28;20040;-65
2022/07/03 02:09:01;;;;;;;4.93;1.88;;;;;;;17.71;56.65;101363.31;5078847;28;20063;-65
2022/07/03 02:11:49;;;;;;;5.38;1.75;;;;;;;17.53;57.47;101359.88;5081477;28;20468;-66
2022/07/03 02:14:18;;;;;;;5.03;1.70;;;;;;;17.88;56.43;101365.88;5085735;28;20048;-66
2022/07/03 02:16:45;;;;;;;6.40;1.67;;;;;;;17.69;56.87;101371.19;5057048;28;20053;-66
2022/07/03 02:19:14;;;;;;;4.97;1.73;;;;;;;17.45;57.65;101371.09;5086495;28;20048;-66
2022/07/03 02:21:48;;;;;;;7.25;2.10;;;;;;;17.30;57.97;101375.34;5045414;28;20057;-66
2022/07/03 02:24:18;;;;;;;6.50;1.83;;;;;;;17.30;57.87;101360.59;5077990;28;20049;-67
2022/07/03 02:27:06;;;;;;;7.57;2.08;;;;;;;17.30;57.90;101372.53;5076068;28;20434;-66
2022/07/03 02:29:36;;;;;;;5.20;1.80;;;;;;;17.12;58.44;101367.50;5045442;28;20083;-63
2022/07/03 02:32:07;;;;;;;8.38;1.92;;;;;;;17.26;58.08;101370.81;5057653;28;20049;-66
2022/07/03 02:34:35;;;;;;;4.65;1.70;;;;;;;17.28;58.00;101360.94;5079207;28;20063;-66
2022/07/03 02:37:12;;;;;;;5.20;1.90;;;;;;;17.05;58.77;101367.22;5080437;28;20071;-65
2022/07/03 02:40:00;;;;;;;7.07;1.95;;;;;;;17.10;58.84;101375.38;5056472;28;20075;-67
2022/07/03 02:42:46;;;;;;;2.92;1.48;;;;;;;16.98;58.94;101372.53;5091455;28;20155;-67
2022/07/03 02:45:14;;;;;;;5.00;1.73;;;;;;;16.68;59.82;101372.56;5076828;28;20253;-66
2022/07/03 02:47:48;;;;;;;3.88;1.80;;;;;;;16.52;60.59;101377.13;5062373;28;20064;-66
2022/07/03 02:50:20;;;;;;;6.35;2.03;;;;;;;16.63;60.41;101383.13;5058819;28;20071;-66
2022/07/03 02:52:59;;;;;;;9.43;2.03;;;;;;;16.64;60.22;101384.72;5085293;28;20056;-67
2022/07/03 02:55:43;;;;;;;7.05;2.10;;;;;;;16.55;60.61;101390.34;5075303;28;20052;-68
2022/07/03 02:58:29;;;;;;;8.45;2.03;;;;;;;16.41;60.94;101384.19;5039224;28;20045;-65
2022/07/03 03:01:09;;;;;;;4.72;1.95;;;;;;;16.38;60.99;101390.44;5044721;28;20391;-65
2022/07/03 03:03:39;;;;;;;4.60;1.50;;;;;;;16.24;61.63;101389.03;5072447;28;20060;-65
2022/07/03 03:06:15;;;;;;;4.03;1.90;;;;;;;16.22;61.44;101392.16;5073267;28;20048;-65
2022/07/03 03:08:59;;;;;;;3.95;1.50;;;;;;;16.06;62.17;101393.84;5039560;28;20307;-66
2022/07/03 03:11:47;;;;;;;6.43;1.40;;;;;;;16.12;62.19;101398.09;5078216;28;20075;-66
2022/07/03 03:14:20;;;;;;;4.40;1.48;;;;;;;16.00;62.61;101399.94;5052968;28;20431;-65
2022/07/03 03:16:52;;;;;;;3.22;1.50;;;;;;;15.94;62.78;101396.53;5078467;28;20048;-65
2022/07/03 03:19:24;;;;;;;5.03;1.52;;;;;;;16.08;62.26;101402.69;5079447;28;20124;-65
2022/07/03 03:22:07;;;;;;;3.95;1.15;;;;;;;15.97;62.80;101401.41;5063405;28;20083;-66
2022/07/03 03:24:34;;;;;;;3.60;1.45;;;;;;;16.20;62.14;101399.19;5062337;28;20060;-66
2022/07/03 03:27:01;;;;;;;3.25;1.48;;;;;;;16.13;62.55;101393.31;5065307;28;20430;-67
2022/07/03 03:29:29;;;;;;;6.03;1.73;;;;;;;16.16;62.29;101398.25;5061336;28;20060;-66
2022/07/03 03:31:57;;;;;;;5.68;1.63;;;;;;;16.13;62.43;101398.88;5061038;28;20059;-67
2022/07/03 03:34:31;;;;;;;4.80;1.65;;;;;;;16.27;61.85;101388.34;5052710;28;20056;-66
2022/07/03 03:36:59;;;;;;;5.35;1.48;;;;;;;16.23;62.04;101388.19;5063089;28;20036;-66
2022/07/03 03:39:27;;;;;;;7.55;1.75;;;;;;;16.38;61.61;101389.59;5056273;28;20047;-67
2022/07/03 03:41:54;;;;;;;4.57;1.52;;;;;;;16.19;62.13;101386.44;5084955;28;20068;-65
2022/07/03 03:44:21;;;;;;;3.47;1.50;;;;;;;16.43;61.54;101397.75;5090726;28;20063;-67
2022/07/03 03:46:50;;;;;;;4.93;1.52;;;;;;;16.44;61.36;101393.84;5069330;28;20040;-67
2022/07/03 03:49:17;;;;;;;4.85;1.60;;;;;;;16.51;61.47;101394.94;5073420;28;20044;-66
2022/07/03 03:51:45;;;;;;;5.00;1.30;;;;;;;16.58;61.58;101395.22;5064625;28;20071;-67
2022/07/03 03:54:12;;;;;;;4.15;1.40;;;;;;;16.60;60.99;101392.09;5084924;28;20052;-66
2022/07/03 03:56:39;;;;;;;3.67;1.60;;;;;;;16.62;60.78;101393.41;5057299;28;20059;-67
2022/07/03 03:59:07;;;;;;;4.68;1.60;;;;;;;16.61;60.93;101393.75;5077606;28;20052;-67
2022/07/03 04:01:34;;;;;;;3.80;1.60;;;;;;;16.51;61.39;101394.94;5056918;28;20831;-67
2022/07/03 04:04:02;;;;;;;4.45;1.45;;;;;;;16.21;62.20;101398.03;5077932;28;20380;-66
2022/07/03 04:06:29;;;;;;;7.75;1.75;;;;;;;16.13;62.69;101399.72;5084595;28;20048;-67
2022/07/03 04:08:57;;;;;;;5.90;1.73;;;;;;;16.22;62.38;101405.22;5054046;28;20539;-66
2022/07/03 04:11:24;;;;;;;3.72;1.40;;;;;;;16.43;62.12;101404.13;5083634;28;20792;-67
2022/07/03 04:13:51;;;;;;;6.03;1.35;;;;;;;16.34;62.17;101403.38;5062095;28;20052;-67
2022/07/03 04:16:18;;;;;;;6.78;1.45;;;;;;;16.57;61.72;101415.88;5078608;28;20051;-67
2022/07/03 04:18:46;;;;;;;3.45;1.60;;;;;;;16.13;63.15;101421.94;5056984;28;20080;-66
2022/07/03 04:21:14;;;;;;;7.47;1.70;;;;;;;15.97;63.59;101420.84;5086496;28;20040;-66
2022/07/03 04:23:41;;;;;;;4.68;1.58;;;;;;;16.40;62.56;101415.13;5073882;28;20051;-66
2022/07/03 04:26:08;;;;;;;4.55;1.73;;;;;;;16.54;61.79;101412.94;5079272;28;20048;-66
2022/07/03 04:28:42;;;;;;;4.20;1.63;;;;;;;16.37;62.46;101413.00;5044959;28;20056;-63
2022/07/03 04:31:09;;;;;;;4.93;1.30;;;;;;;16.52;61.86;101418.03;5042619;28;20067;-67
2022/07/03 04:33:37;;;;;;;5.15;1.55;;;;;;;16.25;62.84;101422.06;5089574;28;20059;-66
2022/07/03 04:36:05;;;;;;;5.45;1.60;;;;;;;15.99;63.94;101434.44;5038835;28;20048;-67
2022/07/03 04:38:32;;;;;;;6.22;1.67;;;;;;;16.09;63.58;101434.88;5087466;28;20056;-63
2022/07/03 04:40:59;;;;;;;3.17;1.30;;;;;;;15.96;63.85;101441.47;5076955;28;20064;-64
2022/07/03 04:43:26;;;;;;;6.10;1.35;;;;;;;15.77;64.68;101436.31;5078342;28;20063;-65
2022/07/03 04:45:54;;;;;;;4.57;1.35;;;;;;;16.12;63.97;101434.22;5055349;28;20051;-66
2022/07/03 04:48:21;;;;;;;4.50;1.52;;;;;;;16.12;63.68;101436.19;5063088;28;20060;-63
2022/07/03 04:50:48;;;;;;;4.13;1.30;;;;;;;16.05;63.56;101433.91;5086216;28;20044;-63
2022/07/03 04:53:16;;;;;;;5.32;1.40;;;;;;;15.96;64.09;101441.47;5058316;28;20503;-63
2022/07/03 04:55:43;;;;;;;5.38;1.65;;;;;;;15.72;64.53;101444.00;5079478;28;20052;-62
2022/07/03 04:58:10;;;;;;;4.07;1.50;;;;;;;15.84;64.46;101440.50;5077001;28;20040;-63
2022/07/03 05:00:40;;;;;;;6.13;1.50;;;;;;;16.10;63.92;101427.34;5073861;28;20123;-63
2022/07/03 05:03:11;;;;;;;6.35;1.65;;;;;;;16.34;63.09;101433.94;5078032;28;20075;-63
2022/07/03 05:05:39;;;;;;;4.40;1.40;;;;;;;16.13;63.48;101435.84;5057764;28;20056;-63
2022/07/03 05:08:07;;;;;;;3.20;1.50;;;;;;;16.00;64.07;101434.09;5052601;28;20503;-63
2022/07/03 05:10:34;;;;;;;7.47;1.60;;;;;;;15.99;64.40;101432.47;5091765;28;20051;-62
2022/07/03 05:13:02;;;;;;;3.78;1.30;;;;;;;16.13;63.81;101443.34;5083648;28;20064;-63
2022/07/03 05:15:29;;;;;;;4.45;1.15;;;;;;;16.15;64.27;101444.66;5090751;28;20079;-63
2022/07/03 05:17:56;;;;;;;4.40;1.48;;;;;;;16.09;64.51;101436.84;5078837;28;20537;-63
2022/07/03 05:20:23;;;;;;;5.80;1.67;;;;;;;15.98;65.23;101443.91;5072178;28;20056;-67
2022/07/03 05:22:52;;;;;;;3.83;1.63;;;;;;;15.97;65.55;101434.75;5060675;28;20075;-66
2022/07/03 05:25:20;;;;;;;6.45;1.33;;;;;;;15.88;65.98;101441.50;5084001;28;20440;-66
2022/07/03 05:27:49;;;;;;;4.50;1.75;;;;;;;15.98;65.63;101439.19;5079348;28;20049;-66
2022/07/03 05:30:17;;;;;;;6.80;1.42;;;;;;;16.02;65.78;101442.94;5068807;28;20053;-63
2022/07/03 05:32:44;;;;;;;4.63;1.60;;;;;;;15.98;65.86;101441.94;5065123;28;20499;-63
2022/07/03 05:35:12;;;;;;;4.07;1.38;;;;;;;16.38;64.73;101439.66;5073569;28;20044;-67
2022/07/03 05:37:39;;;;;;;2.97;1.27;;;;;;;16.72;63.67;101436.69;5077395;28;20055;-67
2022/07/03 05:40:07;;;;;;;6.03;1.60;;;;;;;17.02;62.68;101438.28;5058343;28;20063;-66
2022/07/03 05:42:35;;;;;;;4.72;1.33;;;;;;;17.01;62.42;101441.41;5062685;28;20052;-63
2022/07/03 05:45:03;;;;;;;3.90;1.45;;;;;;;16.71;63.38;101443.44;5031503;28;20052;-65
2022/07/03 05:47:30;;;;;;;8.63;1.60;;;;;;;16.78;63.39;101443.72;5073580;28;20523;-66
2022/07/03 05:49:57;;;;;;;6.43;1.33;;;;;;;16.93;62.59;101443.09;5066307;28;20060;-66
2022/07/03 05:52:25;;;;;;;4.45;1.40;;;;;;;16.65;63.71;101448.38;5054283;28;20056;-66
2022/07/03 05:54:52;;;;;;;4.47;1.40;;;;;;;16.78;63.63;101446.50;5059105;28;20055;-67
2022/07/03 05:57:20;;;;;;;7.25;1.40;;;;;;;17.12;62.77;101451.81;5090262;28;20054;-67
2022/07/03 05:59:47;;;;;;;5.10;1.48;;;;;;;17.28;62.21;101449.22;5077692;28;20049;-62
2022/07/03 06:02:15;;;;;;;3.80;1.40;;;;;;;17.07;62.93;101449.22;5078333;28;20056;-62
2022/07/03 06:04:42;;;;;;;4.43;1.33;;;;;;;17.28;62.52;101446.44;5088210;28;20123;-64
2022/07/03 06:07:09;;;;;;;6.00;1.73;;;;;;;16.78;64.05;101452.88;5058491;28;20495;-63
2022/07/03 06:09:37;;;;;;;4.28;1.48;;;;;;;17.06;63.50;101455.97;5049571;28;20512;-63
2022/07/03 06:12:04;;;;;;;6.07;1.55;;;;;;;16.97;63.81;101462.72;5085609;28;20051;-63
2022/07/03 06:14:31;;;;;;;3.15;1.20;;;;;;;16.52;65.68;101465.31;5067797;28;20060;-63
2022/07/03 06:16:59;;;;;;;4.88;1.50;;;;;;;16.71;65.28;101457.34;5071028;28;20063;-62
2022/07/03 06:19:26;;;;;;;5.03;1.40;;;;;;;16.60;65.62;101470.00;5059404;28;20495;-66
2022/07/03 06:21:54;;;;;;;6.00;1.48;;;;;;;16.67;65.83;101465.53;5085569;28;20056;-66
2022/07/03 06:24:21;;;;;;;7.57;1.70;;;;;;;16.88;65.28;101465.56;5059863;28;20071;-67
2022/07/03 06:26:49;;;;;;;6.15;1.80;;;;;;;17.10;64.58;101468.06;5056496;28;20151;-64
2022/07/03 06:29:16;;;;;;;6.65;1.70;;;;;;;17.15;64.64;101465.06;5066417;28;20523;-63
2022/07/03 06:31:44;;;;;;;6.78;1.48;;;;;;;17.31;64.48;101474.41;5067692;28;20063;-64
2022/07/03 06:34:11;;;;;;;5.30;2.05;;;;;;;17.12;65.50;101478.84;5058223;28;20217;-63
2022/07/03 06:36:39;;;;;;;5.93;1.67;;;;;;;17.03;65.96;101481.69;5040493;28;20052;-63
2022/07/03 06:39:08;;;;;;;6.40;2.00;;;;;;;17.10;65.85;101467.22;5077295;28;20048;-64
2022/07/03 06:41:35;;;;;;;6.72;2.17;;;;;;;17.07;65.74;101468.72;5078433;28;20059;-66
2022/07/03 06:44:03;;;;;;;7.65;1.90;;;;;;;16.91;67.03;101464.91;5037971;28;20041;-66
2022/07/03 06:46:30;;;;;;;5.57;2.10;;;;;;;16.86;67.02;101467.88;5090467;28;20104;-67
2022/07/03 06:48:57;;;;;;;6.32;3.33;;;;;;;17.09;66.29;101469.19;5076833;28;20056;-67
2022/07/03 06:51:25;;;;;;;9.77;2.88;;;;;;;17.39;65.40;101467.16;5070654;28;20056;-67
2022/07/03 06:53:52;;;;;;;9.45;2.92;;;;;;;17.61;64.62;101462.06;5072394;28;20407;-66
2022/07/03 06:56:19;;;;;;;8.65;3.42;;;;;;;17.59;64.63;101463.56;5068237;28;20409;-67
2022/07/03 06:58:47;;;;;;;6.25;3.55;;;;;;;17.67;64.42;101471.84;5072974;28;20063;-63
2022/07/03 07:01:14;;;;;;;8.30;3.97;;;;;;;17.60;64.19;101468.78;5081919;28;20063;-64
2022/07/03 07:03:42;;;;;;;9.60;3.53;;;;;;;17.14;65.78;101468.97;5076179;28;20055;-64
2022/07/03 07:06:09;;;;;;;7.45;3.60;;;;;;;17.24;65.74;101476.94;5089653;28;20056;-65
2022/07/03 07:08:36;;;;;;;9.38;3.38;;;;;;;17.47;65.32;101480.22;5075622;28;20041;-66
2022/07/03 07:11:04;;;;;;;8.02;3.20;;;;;;;18.02;63.85;101477.03;5076136;28;20057;-67
2022/07/03 07:13:31;;;;;;;7.65;4.03;;;;;;;17.91;63.21;101480.28;5090221;28;20059;-67
2022/07/03 07:15:59;;;;;;;7.13;3.22;;;;;;;17.79;63.97;101485.00;5082454;28;20053;-66
2022/07/03 07:18:27;;;;;;;6.97;2.80;;;;;;;17.60;64.79;101482.72;5073994;28;20049;-66
2022/07/03 07:20:54;;;;;;;6.60;3.03;;;;;;;17.79;64.12;101491.38;5079227;28;20044;-66
2022/07/03 07:23:21;;;;;;;6.90;3.15;;;;;;;17.83;63.47;101480.38;5083969;28;20063;-66
2022/07/03 07:25:49;;;;;;;7.05;3.03;;;;;;;17.91;63.77;101476.66;5083817;28;20064;-66
2022/07/03 07:28:16;;;;;;;6.80;2.70;;;;;;;18.40;61.98;101486.78;5080029;28;20052;-66
2022/07/03 07:30:44;;;;;;;8.77;2.58;;;;;;;18.40;62.08;101486.78;5089634;28;20052;-67
2022/07/03 07:33:11;;;;;;;5.30;2.40;;;;;;;18.32;62.00;101481.28;5061150;28;20044;-66
2022/07/03 07:35:39;;;;;;;5.22;2.35;;;;;;;18.26;61.95;101482.66;5082543;28;20052;-66
2022/07/03 07:38:06;;;;;;;6.53;2.40;;;;;;;19.13;60.31;101486.75;5066819;28;20039;-66
2022/07/03 07:40:36;;;;;;;6.28;2.30;;;;;;;19.67;58.15;101486.03;5081643;28;20147;-64
2022/07/03 07:43:03;;;;;;;6.57;2.00;;;;;;;19.41;57.82;101480.06;5078785;28;20060;-65
2022/07/03 07:45:31;;;;;;;5.05;2.30;;;;;;;19.17;58.82;101479.28;5057106;28;20048;-64
2022/07/03 07:47:58;;;;;;;4.72;2.20;;;;;;;20.30;56.42;101489.78;5075818;28;20045;-63
2022/07/03 07:50:26;;;;;;;4.97;1.92;;;;;;;20.68;54.77;101475.13;5073537;28;20060;-64
2022/07/03 07:52:53;;;;;;;4.78;2.10;;;;;;;21.44;53.13;101480.94;5083650;28;20060;-64
2022/07/03 07:55:20;;;;;;;7.13;1.98;;;;;;;21.47;52.11;101480.19;5072782;28;20049;-64
2022/07/03 07:57:48;;;;;;;6.38;2.60;;;;;;;21.07;53.45;101474.94;5045128;28;20049;-65
2022/07/03 08:00:17;;;;;;;6.95;2.20;;;;;;;21.00;52.76;101476.75;5074078;28;20048;-65
2022/07/03 08:05:38;;;;;;;7.25;1.60;;;;;;;20.91;54.17;101478.91;5071816;28;20064;-64
2022/07/03 08:08:16;;;;;;;4.35;1.73;;;;;;;21.66;51.90;101480.19;5064646;28;20049;-64
2022/07/03 08:10:48;;;;;;;4.90;1.63;;;;;;;22.29;50.36;101480.63;5040460;28;20539;-66
2022/07/03 08:13:17;;;;;;;5.47;1.55;;;;;;;22.32;49.31;101480.69;5042723;28;20053;-66
2022/07/03 08:15:45;;;;;;;5.85;1.85;;;;;;;22.36;48.92;101472.34;5069079;28;20052;-67
2022/07/03 08:18:13;;;;;;;5.05;1.83;;;;;;;21.13;52.25;101467.84;5047585;28;20047;-65
2022/07/03 08:20:40;;;;;;;5.57;1.83;;;;;;;21.46;51.34;101469.34;5057444;28;20522;-65
2022/07/03 08:23:08;;;;;;;8.38;2.15;;;;;;;22.08;49.77;101469.84;5081100;28;20087;-64
2022/07/03 08:25:35;;;;;;;5.32;1.50;;;;;;;22.55;48.30;101469.47;5064597;28;20052;-68
2022/07/03 08:28:03;;;;;;;5.57;1.70;;;;;;;21.95;48.02;101473.97;5085080;28;20037;-69
2022/07/03 08:30:31;;;;;;;3.67;1.35;;;;;;;20.43;52.10;101479.31;5089024;28;20052;-66
2022/07/03 08:32:59;;;;;;;5.50;1.77;;;;;;;20.51;52.33;101481.13;5078566;28;20048;-68
2022/07/03 08:35:27;;;;;;;6.13;1.88;;;;;;;19.90;54.42;101480.66;5063243;28;20049;-67
2022/07/03 08:37:55;;;;;;;5.97;1.90;;;;;;;20.23;52.88;101483.19;5042582;28;20061;-68
2022/07/03 08:40:22;;;;;;;6.82;1.55;;;;;;;20.09;52.21;101476.03;5071823;28;20052;-67
2022/07/03 08:42:54;;;;;;;4.10;1.52;;;;;;;20.23;52.92;101483.19;5076238;28;20039;-66
2022/07/03 08:45:23;;;;;;;7.65;1.77;;;;;;;19.79;54.12;101479.56;5072260;28;20064;-67
2022/07/03 08:47:54;;;;;;;3.97;1.60;;;;;;;19.39;55.63;101474.03;5053345;28;20052;-65
2022/07/03 08:50:21;;;;;;;3.13;1.60;;;;;;;19.43;56.19;101474.13;5054980;28;20123;-68
2022/07/03 08:52:49;;;;;;;3.78;1.50;;;;;;;19.76;54.43;101485.88;5054748;28;20073;-68
2022/07/03 08:55:18;;;;;;;3.33;1.40;;;;;;;19.49;54.31;101472.72;5086207;28;20052;-67
2022/07/03 08:57:47;;;;;;;4.32;1.35;;;;;;;19.99;53.86;101475.72;5072805;28;20045;-66
2022/07/03 09:00:16;;;;;;;4.82;1.85;;;;;;;20.56;52.77;101469.63;5048091;28;20424;-67
2022/07/03 09:02:45;;;;;;;3.90;1.73;;;;;;;20.60;51.71;101465.78;5069806;28;20045;-68
2022/07/03 09:05:14;;;;;;;4.43;1.55;;;;;;;20.51;51.68;101467.94;5080745;28;20403;-65
2022/07/03 09:07:43;;;;;;;5.78;1.30;;;;;;;19.96;53.99;101485.63;5063457;28;20060;-65
2022/07/03 09:10:12;;;;;;;4.03;1.63;;;;;;;19.92;54.11;101479.16;5064680;28;20044;-65
2022/07/03 09:12:39;;;;;;;3.25;1.38;;;;;;;19.73;54.21;101476.22;5061383;28;20495;-67
2022/07/03 09:15:08;;;;;;;6.25;1.40;;;;;;;19.94;54.27;101476.81;5078197;28;20036;-66
2022/07/03 09:17:36;;;;;;;5.45;1.48;;;;;;;19.69;54.74;101478.09;5074989;28;20053;-66
2022/07/03 09:20:05;;;;;;;4.30;1.55;;;;;;;20.12;54.21;101472.50;5054545;28;20048;-66
2022/07/03 09:22:35;;;;;;;3.60;1.45;;;;;;;20.49;52.77;101470.28;5068993;28;20057;-66
2022/07/03 09:25:09;;;;;;;6.13;1.42;;;;;;;20.06;54.31;101476.75;5079473;28;20048;-66
2022/07/03 09:27:38;;;;;;;7.35;1.67;;;;;;;20.48;53.31;101471.47;5058289;28;20044;-65
2022/07/03 09:30:08;;;;;;;5.18;1.42;;;;;;;20.79;52.46;101462.22;5077271;28;20059;-65
2022/07/03 09:32:38;;;;;;;4.93;1.38;;;;;;;20.96;52.38;101464.59;5077497;28;20056;-65
2022/07/03 09:35:26;;;;;;;4.53;1.40;;;;;;;20.66;52.95;101460.72;5080822;28;20040;-65
2022/07/03 09:38:04;;;;;;;4.72;1.45;;;;;;;20.17;53.63;101471.47;5069759;28;20072;-65
2022/07/03 09:40:54;;;;;;;6.88;1.63;;;;;;;19.90;54.18;101464.72;5061585;28;20040;-65
2022/07/03 09:43:29;;;;;;;8.52;1.38;;;;;;;19.85;54.38;101473.38;5057819;28;20039;-66
2022/07/03 09:46:01;;;;;;;4.35;1.40;;;;;;;19.77;54.87;101473.53;5081234;28;20088;-65
2022/07/03 09:48:28;;;;;;;4.45;1.65;;;;;;;20.10;54.09;101479.63;5066691;28;20059;-65
2022/07/03 09:51:28;;;;;;;4.53;1.55;;;;;;;20.19;53.53;101471.09;5084239;28;20056;-66
2022/07/03 09:53:56;;;;;;;3.65;1.20;;;;;;;20.34;53.36;101464.69;5075130;28;20059;-65
2022/07/03 09:56:27;;;;;;;8.50;1.80;;;;;;;19.95;54.94;101475.63;5059881;28;20044;-64
2022/07/03 09:59:05;;;;;;;3.13;1.38;;;;;;;20.21;54.27;101479.97;5088667;28;20087;-66
2022/07/03 10:01:33;;;;;;;3.67;1.50;;;;;;;20.71;53.17;101471.63;5082238;28;20052;-66
2022/07/03 10:04:22;;;;;;;5.13;1.85;;;;;;;20.50;52.85;101468.31;5080608;28;20075;-65
2022/07/03 10:06:58;;;;;;;9.52;1.90;;;;;;;20.02;54.08;101486.19;5070373;28;20049;-66
2022/07/03 10:09:28;;;;;;;6.15;1.70;;;;;;;19.87;55.32;101485.00;5086697;28;20044;-65
2022/07/03 10:11:56;;;;;;;7.25;1.60;;;;;;;20.00;55.13;101485.72;5067742;28;20053;-66
2022/07/03 10:14:25;;;;;;;5.22;1.50;;;;;;;20.19;54.32;101480.28;5076000;28;20078;-66
2022/07/03 10:16:53;;;;;;;5.15;1.55;;;;;;;20.54;53.92;101470.00;5078710;28;20076;-66
2022/07/03 10:19:23;;;;;;;10.00;2.03;;;;;;;20.80;52.98;101478.66;5063674;28;20426;-66
2022/07/03 10:21:58;;;;;;;6.35;2.38;;;;;;;20.52;53.91;101477.94;5079003;28;20384;-67
2022/07/03 10:24:27;;;;;;;7.80;1.95;;;;;;;20.84;53.81;101476.75;5062132;28;20071;-67
2022/07/03 10:26:57;;;;;;;8.80;2.65;;;;;;;21.57;51.47;101478.78;5082431;28;20053;-67
2022/07/03 10:29:26;;;;;;;10.38;2.47;;;;;;;20.72;52.43;101478.84;5076194;28;20076;-67
2022/07/03 10:31:57;;;;;;;6.00;2.38;;;;;;;20.38;54.35;101485.97;5047956;28;20049;-67
2022/07/03 10:34:27;;;;;;;7.55;2.50;;;;;;;20.51;53.31;101487.53;5076391;28;20112;-66
2022/07/03 10:36:59;;;;;;;4.57;2.10;;;;;;;20.53;53.43;101476.78;5074376;28;20052;-68
2022/07/03 10:39:40;;;;;;;5.97;2.40;;;;;;;20.61;53.32;101477.75;5089051;28;20055;-63
2022/07/03 10:45:06;;;;;;;5.75;2.75;;;;;;;21.08;52.62;101464.50;5078088;28;20411;-63
2022/07/03 10:47:42;;;;;;;8.15;2.40;;;;;;;21.06;52.01;101469.69;5074677;28;20075;-61
2022/07/03 10:50:29;;;;;;;8.77;2.42;;;;;;;21.36;51.96;101470.75;5080604;28;20502;-65
2022/07/03 10:53:23;;;;;;;6.57;2.60;;;;;;;21.76;50.29;101476.00;5051736;28;20057;-64
2022/07/03 10:56:17;;;;;;;7.93;2.78;;;;;;;21.08;51.69;101479.34;5067774;28;20064;-63
2022/07/03 10:58:57;;;;;;;6.20;2.80;;;;;;;21.30;50.62;101483.44;5066447;28;20060;-63
2022/07/03 11:01:29;;;;;;;8.95;2.70;;;;;;;21.18;51.85;101478.75;5090889;28;20051;-63
2022/07/03 11:04:00;;;;;;;6.70;3.00;;;;;;;21.07;52.35;101479.72;5056941;28;20052;-62
2022/07/03 11:06:39;;;;;;;6.32;2.50;;;;;;;21.73;50.94;101477.53;5071928;28;20048;-62
2022/07/03 11:09:09;;;;;;;6.05;2.28;;;;;;;22.33;48.91;101478.72;5063423;28;20051;-64
2022/07/03 11:11:55;;;;;;;5.28;2.28;;;;;;;22.37;49.25;101475.97;5057763;28;20060;-63
2022/07/03 11:14:27;;;;;;;6.10;2.60;;;;;;;21.37;51.48;101485.56;5086572;28;20044;-63
2022/07/03 11:17:17;;;;;;;5.82;2.58;;;;;;;21.18;51.55;101487.16;5049189;28;20048;-62
2022/07/03 11:20:23;;;;;;;6.90;2.85;;;;;;;21.19;51.42;101482.38;5072362;28;20052;-63
2022/07/03 11:23:05;;;;;;;3.95;2.20;;;;;;;21.51;51.21;101472.69;5069453;28;20056;-62
2022/07/03 11:25:41;;;;;;;6.68;2.40;;;;;;;21.47;51.15;101474.59;5057797;28;20071;-62
2022/07/03 11:28:31;;;;;;;4.55;2.03;;;;;;;21.67;49.87;101479.00;5070698;28;20135;-63
2022/07/03 11:31:18;;;;;;;6.20;2.03;;;;;;;21.95;49.18;101465.56;5081489;28;20055;-62
2022/07/03 11:33:46;;;;;;;5.18;1.83;;;;;;;22.39;48.55;101465.19;5075696;28;20067;-62
2022/07/03 11:36:16;;;;;;;4.63;2.10;;;;;;;22.95;47.40;101466.91;5074598;28;20049;-63
2022/07/03 11:38:44;;;;;;;;;;;;;;;23.11;46.68;101464.75;5076960;28;20048;-62
2022/07/03 11:41:13;;;;;;;4.03;1.80;;;;;;;22.26;47.21;101470.94;5079294;28;19920;-63
2022/07/03 11:43:48;;;;;;;5.73;1.43;;;;;;;21.60;48.92;101469.66;5054391;28;20408;-63
2022/07/03 11:46:25;;;;;;;5.07;1.27;;;;;;;21.75;49.52;101468.75;5073832;28;20052;-62
2022/07/03 11:49:06;;;;;;;6.35;1.50;;;;;;;22.29;48.70;101473.03;5076922;28;20041;-62
2022/07/03 11:51:35;;;;;;;6.25;1.83;;;;;;;22.32;48.17;101460.22;5056050;28;20052;-61